Jona — CQFI — position and weather

sailwx.info

Track history (hours):
 
Tides and Currents Weather Stations Pressure Air Temp Water Temp Dewpoint Dewpoint Depression Visibility Wind Speed Wind Dir Waves Ship Positions

Jona

Last reported at 2018-Feb-22 11:38 UTC. Time now 2018-Feb-22 13:14 UTC.
Position N 38°44' W 009°06'.

Length 190 m; draft 10.2 m.

Type: Ship (hazmat cat A). MMSI: 255805610.

Date/timePositionNaut miles runAvg speedWind from/ knotsBaromVisibWave heightAir tempDewpointWater temp
2018-Feb-22 11:38N 38°44' W 009°06'0 0.0
2018-Feb-22 11:26N 38°44' W 009°06'0 0.0
2018-Feb-22 10:50N 38°44' W 009°06'0 0.0
2018-Feb-22 10:29N 38°44' W 009°06'0 0.0
2018-Feb-22 09:59N 38°44' W 009°06'0 0.0
2018-Feb-22 09:25N 38°44' W 009°06'0 0.0
2018-Feb-22 08:58N 38°44' W 009°06'0 0.0
2018-Feb-22 08:28N 38°44' W 009°06'0 0.0
2018-Feb-22 07:46N 38°44' W 009°06'0 0.0
2018-Feb-22 07:30N 38°44' W 009°06'2 3.2
2018-Feb-22 07:00N 38°42' W 009°08'5 6.6
2018-Feb-22 06:11N 38°41' W 009°14'1 4.3
2018-Feb-22 06:01N 38°41' W 009°15'4 8.3
2018-Feb-22 05:30N 38°39' W 009°20'4 8.0
2018-Feb-22 05:01N 38°36' W 009°24'3 6.9
2018-Feb-22 04:31N 38°33' W 009°24'5 9.5
2018-Feb-22 04:00N 38°28' W 009°24'611.1
2018-Feb-22 03:28N 38°22' W 009°23'511.5
2018-Feb-22 03:00N 38°17' W 009°23'612.2
2018-Feb-22 02:30N 38°11' W 009°23'612.1
2018-Feb-22 02:01N 38°05' W 009°23'612.1
2018-Feb-22 01:30N 37°59' W 009°23'612.0
2018-Feb-22 01:01N 37°53' W 009°23'612.2
2018-Feb-22 00:31N 37°47' W 009°23'612.9
2018-Feb-22 00:01N 37°40' W 009°24'713.1
2018-Feb-21 23:30N 37°34' W 009°23'712.9
2018-Feb-21 22:58N 37°27' W 009°23'1113.1
2018-Feb-21 22:05N 37°15' W 009°23'413.1
2018-Feb-21 21:47N 37°11' W 009°23'412.9
2018-Feb-21 21:30N 37°08' W 009°22'1912.2
2018-Feb-21 19:55N 36°49' W 009°15'512.4
2018-Feb-21 19:29N 36°45' W 009°10'611.8
2018-Feb-21 19:01N 36°43' W 009°04'1012.4
2018-Feb-21 18:12N 36°39' W 008°53'16413.1
2018-Feb-21 05:40N 35°57' W 005°36'512.1
2018-Feb-21 05:15N 35°59' W 005°30'311.7
2018-Feb-21 05:00N 35°60' W 005°27'611.6
2018-Feb-21 04:30N 36°01' W 005°20'712.6
2018-Feb-21 03:58N 36°03' W 005°12'714.0
2018-Feb-21 03:28N 36°05' W 005°04'19713.9
2018-Feb-20 13:17N 37°07' W 001°11'614.5
2018-Feb-20 12:52N 37°11' W 001°05'714.6
2018-Feb-20 12:22N 37°15' W 000°58'614.7
2018-Feb-20 11:58N 37°20' W 000°53'714.7
2018-Feb-20 11:30N 37°24' W 000°46'714.5
2018-Feb-20 11:00N 37°29' W 000°40'714.6
2018-Feb-20 10:30N 37°35' W 000°34'714.3
2018-Feb-20 10:00N 37°40' W 000°28'2314.5
2018-Feb-20 08:24N 37°60' W 000°12'8511.5
2018-Feb-20 00:58N 39°25' W 000°18'2 4.7
2018-Feb-20 00:30N 39°27' W 000°19'0 0.0
2018-Feb-19 02:46N 39°27' W 000°19'1 2.5
2018-Feb-19 02:30N 39°27' W 000°19'3 0.1
2018-Feb-17 22:34N 39°24' W 000°16'0 0.1
2018-Feb-17 22:28N 39°24' W 000°16'0 0.1
2018-Feb-17 21:58N 39°24' W 000°16'0 0.0
2018-Feb-17 08:13N 39°24' W 000°16'118 7.1
2018-Feb-16 15:41N 40°36' E 001°46'1811.2
2018-Feb-16 14:06N 40°52' E 001°56'612.0
2018-Feb-16 13:38N 40°57' E 001°59'512.3
2018-Feb-16 13:12N 41°02' E 002°02'212.0
2018-Feb-16 13:00N 41°04' E 002°03'713.1
2018-Feb-16 12:30N 41°10' E 002°07'713.3
2018-Feb-16 12:00N 41°16' E 002°11'5 9.3
2018-Feb-16 11:30N 41°21' E 002°10'1 1.5
2018-Feb-16 11:00N 41°21' E 002°10'0 0.0
2018-Feb-16 10:30N 41°21' E 002°10'0 0.0
2018-Feb-16 10:00N 41°21' E 002°10'0 0.0
2018-Feb-16 09:30N 41°21' E 002°10'0 0.0
2018-Feb-16 08:32N 41°21' E 002°10'0 0.0
2018-Feb-16 08:23N 41°21' E 002°10'0 0.0
2018-Feb-16 07:56N 41°21' E 002°10'0 0.0
2018-Feb-16 07:20N 41°21' E 002°10'0 0.0
2018-Feb-16 06:53N 41°21' E 002°10'0 0.0
2018-Feb-16 06:29N 41°21' E 002°10'0 0.0
2018-Feb-16 05:58N 41°21' E 002°10'0 0.0
2018-Feb-16 05:28N 41°21' E 002°10'0 0.0
2018-Feb-16 04:52N 41°21' E 002°10'0 0.0
2018-Feb-16 04:28N 41°21' E 002°10'0 0.0
2018-Feb-16 04:00N 41°21' E 002°10'0 0.0
2018-Feb-16 03:21N 41°21' E 002°10'0 0.0
2018-Feb-16 02:57N 41°21' E 002°10'0 0.0
2018-Feb-16 02:30N 41°21' E 002°10'0 0.0
2018-Feb-16 01:57N 41°21' E 002°10'0 0.0
2018-Feb-16 01:26N 41°21' E 002°10'0 0.0
2018-Feb-16 00:56N 41°21' E 002°10'0 0.0
2018-Feb-16 00:26N 41°21' E 002°10'0 0.0
2018-Feb-16 00:00N 41°21' E 002°10'0 0.0
2018-Feb-15 23:30N 41°21' E 002°10'0 0.0
2018-Feb-15 22:57N 41°21' E 002°10'0 0.0
2018-Feb-15 22:26N 41°21' E 002°10'0 0.0
2018-Feb-15 21:59N 41°21' E 002°10'0 0.0
2018-Feb-15 21:26N 41°21' E 002°10'0 0.0
2018-Feb-15 20:59N 41°21' E 002°10'0 0.0
2018-Feb-15 20:19N 41°21' E 002°10'0 0.0
2018-Feb-15 19:58N 41°21' E 002°10'0 0.0
2018-Feb-15 19:01N 41°21' E 002°10'0 0.0
2018-Feb-15 18:58N 41°21' E 002°10'0 0.0
2018-Feb-15 18:28N 41°21' E 002°10'0 0.0
2018-Feb-15 18:00N 41°21' E 002°10'0 0.0
2018-Feb-15 17:30N 41°21' E 002°10'0 0.0
2018-Feb-15 17:00N 41°21' E 002°10'0 0.0
2018-Feb-15 15:54N 41°21' E 002°10'0 0.0
2018-Feb-15 15:29N 41°21' E 002°10'0 0.0
2018-Feb-15 14:53N 41°21' E 002°10'0 0.0
2018-Feb-15 14:29N 41°21' E 002°10'0 0.0
2018-Feb-15 13:59N 41°21' E 002°10'0 0.0
2018-Feb-15 13:04N 41°21' E 002°10'0 0.0
2018-Feb-15 12:49N 41°21' E 002°10'0 0.0
2018-Feb-15 12:13N 41°21' E 002°10'0 0.0
2018-Feb-15 11:43N 41°21' E 002°10'0 0.0
2018-Feb-15 10:49N 41°21' E 002°10'0 0.3
2018-Feb-15 10:30N 41°21' E 002°10'3 6.1
2018-Feb-15 10:00N 41°18' E 002°10'2 4.7
2018-Feb-15 09:30N 41°17' E 002°13'0 0.8
2018-Feb-15 09:00N 41°17' E 002°13'2 4.4
2018-Feb-15 08:30N 41°18' E 002°15'5 9.1
2018-Feb-15 08:00N 41°20' E 002°21'714.0
2018-Feb-15 07:30N 41°23' E 002°29'22816.7
2018-Feb-14 17:50N 42°57' E 007°09'717.0
2018-Feb-14 17:25N 43°01' E 007°16'917.1
2018-Feb-14 16:54N 43°08' E 007°25'5517.4
2018-Feb-14 13:44N 43°40' E 008°26'417.6
2018-Feb-14 13:30N 43°43' E 008°30'917.6
2018-Feb-14 13:01N 43°50' E 008°38'918.4
2018-Feb-14 12:30N 43°57' E 008°46'918.0
2018-Feb-14 12:00N 44°05' E 008°52'917.7
2018-Feb-14 11:30N 44°13' E 008°56'917.2
2018-Feb-14 11:00N 44°22' E 008°57'3 5.4
2018-Feb-14 10:30N 44°24' E 008°55'0 0.0
2018-Feb-14 10:00N 44°24' E 008°55'0 0.0
2018-Feb-14 09:30N 44°24' E 008°55'0 0.0
2018-Feb-14 09:00N 44°24' E 008°55'0 0.0
2018-Feb-14 08:29N 44°24' E 008°55'0 0.0
2018-Feb-14 07:56N 44°24' E 008°55'0 0.0
2018-Feb-14 07:29N 44°24' E 008°55'0 0.0
2018-Feb-14 06:59N 44°24' E 008°55'0 0.0
2018-Feb-14 06:29N 44°24' E 008°55'0 0.0
2018-Feb-14 05:58N 44°24' E 008°55'0 0.0
2018-Feb-14 05:28N 44°24' E 008°55'0 0.0
2018-Feb-14 04:58N 44°24' E 008°55'0 0.0
2018-Feb-14 04:28N 44°24' E 008°55'0 0.0
2018-Feb-14 04:01N 44°24' E 008°55'0 0.0
2018-Feb-14 03:30N 44°24' E 008°55'0 0.0
2018-Feb-14 03:00N 44°24' E 008°55'0 0.0
2018-Feb-14 02:30N 44°24' E 008°55'0 0.0
2018-Feb-14 02:00N 44°24' E 008°55'0 0.0
2018-Feb-14 01:26N 44°24' E 008°55'0 0.0
2018-Feb-14 00:59N 44°24' E 008°55'0 0.0
2018-Feb-14 00:26N 44°24' E 008°55'0 0.0
2018-Feb-13 23:59N 44°24' E 008°55'0 0.0
2018-Feb-13 23:29N 44°24' E 008°55'0 0.0
2018-Feb-13 22:58N 44°24' E 008°55'0 0.0
2018-Feb-13 22:28N 44°24' E 008°55'0 0.0
2018-Feb-13 21:55N 44°24' E 008°55'0 0.0
2018-Feb-13 21:28N 44°24' E 008°55'0 0.0
2018-Feb-13 21:00N 44°24' E 008°55'0 0.0
2018-Feb-13 20:30N 44°24' E 008°55'0 0.0
2018-Feb-13 20:00N 44°24' E 008°55'0 0.0
2018-Feb-13 19:30N 44°24' E 008°55'0 0.0
2018-Feb-13 19:00N 44°24' E 008°55'0 0.0
2018-Feb-13 18:29N 44°24' E 008°55'0 0.0
2018-Feb-13 17:59N 44°24' E 008°55'0 0.0
2018-Feb-13 17:26N 44°24' E 008°55'0 0.0
2018-Feb-13 16:59N 44°24' E 008°55'0 0.0
2018-Feb-13 16:28N 44°24' E 008°55'0 0.0
2018-Feb-13 15:55N 44°24' E 008°55'0 0.0
2018-Feb-13 15:28N 44°24' E 008°55'0 0.0
2018-Feb-13 14:55N 44°24' E 008°55'0 0.0
2018-Feb-13 14:28N 44°24' E 008°55'0 0.0
2018-Feb-13 14:00N 44°24' E 008°55'0 0.0
2018-Feb-13 13:30N 44°24' E 008°55'0 0.0
2018-Feb-13 12:57N 44°24' E 008°55'0 0.0
2018-Feb-13 12:30N 44°24' E 008°55'0 0.0
2018-Feb-13 12:00N 44°24' E 008°55'0 0.0
2018-Feb-13 11:29N 44°24' E 008°55'0 0.0
2018-Feb-13 10:56N 44°24' E 008°55'0 0.0
2018-Feb-13 10:26N 44°24' E 008°55'0 0.0
2018-Feb-13 09:59N 44°24' E 008°55'0 0.0
2018-Feb-13 09:28N 44°24' E 008°55'0 0.0
2018-Feb-13 08:58N 44°24' E 008°55'0 0.0
2018-Feb-13 08:25N 44°24' E 008°55'0 0.0
2018-Feb-13 07:58N 44°24' E 008°55'0 0.0
2018-Feb-13 07:30N 44°24' E 008°55'2 4.0
2018-Feb-13 07:00N 44°23' E 008°57'2 4.2
2018-Feb-13 06:30N 44°21' E 008°58'4 8.0
2018-Feb-13 06:00N 44°17' E 008°58'4 7.6
2018-Feb-13 05:30N 44°13' E 008°57'4 8.1
2018-Feb-13 05:00N 44°09' E 008°56'4 9.0
2018-Feb-13 04:30N 44°05' E 008°55'5 9.2
2018-Feb-13 04:00N 44°01' E 008°53'5 9.0
2018-Feb-13 03:30N 43°57' E 008°49'4 8.6
2018-Feb-13 03:00N 43°54' E 008°45'4 8.4
2018-Feb-13 02:30N 43°51' E 008°41'4 8.6
2018-Feb-13 02:00N 43°47' E 008°37'4 8.8
2018-Feb-13 01:30N 43°44' E 008°33'4 8.6
2018-Feb-13 01:00N 43°41' E 008°29'4 8.9
2018-Feb-13 00:30N 43°38' E 008°25'  
Track history (hours):
 
Tides and Currents Weather Stations Pressure Air Temp Water Temp Dewpoint Dewpoint Depression Visibility Wind Speed Wind Dir Waves Ship Positions

Jona

Last reported at 2018-Feb-22 11:38 UTC. Time now 2018-Feb-22 13:14 UTC.
Position N 38°44' W 009°06'.

Length 190 m; draft 10.2 m.

Type: Ship (hazmat cat A). MMSI: 255805610.

Date/timePositionNaut miles runAvg speedWind from/ knotsBaromVisibWave heightAir tempDewpointWater temp
2018-Feb-22 11:38N 38°44' W 009°06'0 0.0
2018-Feb-22 11:26N 38°44' W 009°06'0 0.0
2018-Feb-22 10:50N 38°44' W 009°06'0 0.0
2018-Feb-22 10:29N 38°44' W 009°06'0 0.0
2018-Feb-22 09:59N 38°44' W 009°06'0 0.0
2018-Feb-22 09:25N 38°44' W 009°06'0 0.0
2018-Feb-22 08:58N 38°44' W 009°06'0 0.0
2018-Feb-22 08:28N 38°44' W 009°06'0 0.0
2018-Feb-22 07:46N 38°44' W 009°06'0 0.0
2018-Feb-22 07:30N 38°44' W 009°06'2 3.2
2018-Feb-22 07:00N 38°42' W 009°08'5 6.6
2018-Feb-22 06:11N 38°41' W 009°14'1 4.3
2018-Feb-22 06:01N 38°41' W 009°15'4 8.3
2018-Feb-22 05:30N 38°39' W 009°20'4 8.0
2018-Feb-22 05:01N 38°36' W 009°24'3 6.9
2018-Feb-22 04:31N 38°33' W 009°24'5 9.5
2018-Feb-22 04:00N 38°28' W 009°24'611.1
2018-Feb-22 03:28N 38°22' W 009°23'511.5
2018-Feb-22 03:00N 38°17' W 009°23'612.2
2018-Feb-22 02:30N 38°11' W 009°23'612.1
2018-Feb-22 02:01N 38°05' W 009°23'612.1
2018-Feb-22 01:30N 37°59' W 009°23'612.0
2018-Feb-22 01:01N 37°53' W 009°23'612.2
2018-Feb-22 00:31N 37°47' W 009°23'612.9
2018-Feb-22 00:01N 37°40' W 009°24'713.1
2018-Feb-21 23:30N 37°34' W 009°23'712.9
2018-Feb-21 22:58N 37°27' W 009°23'1113.1
2018-Feb-21 22:05N 37°15' W 009°23'413.1
2018-Feb-21 21:47N 37°11' W 009°23'412.9
2018-Feb-21 21:30N 37°08' W 009°22'1912.2
2018-Feb-21 19:55N 36°49' W 009°15'512.4
2018-Feb-21 19:29N 36°45' W 009°10'611.8
2018-Feb-21 19:01N 36°43' W 009°04'1012.4
2018-Feb-21 18:12N 36°39' W 008°53'16413.1
2018-Feb-21 05:40N 35°57' W 005°36'512.1
2018-Feb-21 05:15N 35°59' W 005°30'311.7
2018-Feb-21 05:00N 35°60' W 005°27'611.6
2018-Feb-21 04:30N 36°01' W 005°20'712.6
2018-Feb-21 03:58N 36°03' W 005°12'714.0
2018-Feb-21 03:28N 36°05' W 005°04'19713.9
2018-Feb-20 13:17N 37°07' W 001°11'614.5
2018-Feb-20 12:52N 37°11' W 001°05'714.6
2018-Feb-20 12:22N 37°15' W 000°58'614.7
2018-Feb-20 11:58N 37°20' W 000°53'714.7
2018-Feb-20 11:30N 37°24' W 000°46'714.5
2018-Feb-20 11:00N 37°29' W 000°40'714.6
2018-Feb-20 10:30N 37°35' W 000°34'714.3
2018-Feb-20 10:00N 37°40' W 000°28'2314.5
2018-Feb-20 08:24N 37°60' W 000°12'8511.5
2018-Feb-20 00:58N 39°25' W 000°18'2 4.7
2018-Feb-20 00:30N 39°27' W 000°19'0 0.0
2018-Feb-19 02:46N 39°27' W 000°19'1 2.5
2018-Feb-19 02:30N 39°27' W 000°19'3 0.1
2018-Feb-17 22:34N 39°24' W 000°16'0 0.1
2018-Feb-17 22:28N 39°24' W 000°16'0 0.1
2018-Feb-17 21:58N 39°24' W 000°16'0 0.0
2018-Feb-17 08:13N 39°24' W 000°16'118 7.1
2018-Feb-16 15:41N 40°36' E 001°46'1811.2
2018-Feb-16 14:06N 40°52' E 001°56'612.0
2018-Feb-16 13:38N 40°57' E 001°59'512.3
2018-Feb-16 13:12N 41°02' E 002°02'212.0
2018-Feb-16 13:00N 41°04' E 002°03'713.1
2018-Feb-16 12:30N 41°10' E 002°07'713.3
2018-Feb-16 12:00N 41°16' E 002°11'5 9.3
2018-Feb-16 11:30N 41°21' E 002°10'1 1.5
2018-Feb-16 11:00N 41°21' E 002°10'0 0.0
2018-Feb-16 10:30N 41°21' E 002°10'0 0.0
2018-Feb-16 10:00N 41°21' E 002°10'0 0.0
2018-Feb-16 09:30N 41°21' E 002°10'0 0.0
2018-Feb-16 08:32N 41°21' E 002°10'0 0.0
2018-Feb-16 08:23N 41°21' E 002°10'0 0.0
2018-Feb-16 07:56N 41°21' E 002°10'0 0.0
2018-Feb-16 07:20N 41°21' E 002°10'0 0.0
2018-Feb-16 06:53N 41°21' E 002°10'0 0.0
2018-Feb-16 06:29N 41°21' E 002°10'0 0.0
2018-Feb-16 05:58N 41°21' E 002°10'0 0.0
2018-Feb-16 05:28N 41°21' E 002°10'0 0.0
2018-Feb-16 04:52N 41°21' E 002°10'0 0.0
2018-Feb-16 04:28N 41°21' E 002°10'0 0.0
2018-Feb-16 04:00N 41°21' E 002°10'0 0.0
2018-Feb-16 03:21N 41°21' E 002°10'0 0.0
2018-Feb-16 02:57N 41°21' E 002°10'0 0.0
2018-Feb-16 02:30N 41°21' E 002°10'0 0.0
2018-Feb-16 01:57N 41°21' E 002°10'0 0.0
2018-Feb-16 01:26N 41°21' E 002°10'0 0.0
2018-Feb-16 00:56N 41°21' E 002°10'0 0.0
2018-Feb-16 00:26N 41°21' E 002°10'0 0.0
2018-Feb-16 00:00N 41°21' E 002°10'0 0.0
2018-Feb-15 23:30N 41°21' E 002°10'0 0.0
2018-Feb-15 22:57N 41°21' E 002°10'0 0.0
2018-Feb-15 22:26N 41°21' E 002°10'0 0.0
2018-Feb-15 21:59N 41°21' E 002°10'0 0.0
2018-Feb-15 21:26N 41°21' E 002°10'0 0.0
2018-Feb-15 20:59N 41°21' E 002°10'0 0.0
2018-Feb-15 20:19N 41°21' E 002°10'0 0.0
2018-Feb-15 19:58N 41°21' E 002°10'0 0.0
2018-Feb-15 19:01N 41°21' E 002°10'0 0.0
2018-Feb-15 18:58N 41°21' E 002°10'0 0.0
2018-Feb-15 18:28N 41°21' E 002°10'0 0.0
2018-Feb-15 18:00N 41°21' E 002°10'0 0.0
2018-Feb-15 17:30N 41°21' E 002°10'0 0.0
2018-Feb-15 17:00N 41°21' E 002°10'0 0.0
2018-Feb-15 15:54N 41°21' E 002°10'0 0.0
2018-Feb-15 15:29N 41°21' E 002°10'0 0.0
2018-Feb-15 14:53N 41°21' E 002°10'0 0.0
2018-Feb-15 14:29N 41°21' E 002°10'0 0.0
2018-Feb-15 13:59N 41°21' E 002°10'0 0.0
2018-Feb-15 13:04N 41°21' E 002°10'0 0.0
2018-Feb-15 12:49N 41°21' E 002°10'0 0.0
2018-Feb-15 12:13N 41°21' E 002°10'0 0.0
2018-Feb-15 11:43N 41°21' E 002°10'0 0.0
2018-Feb-15 10:49N 41°21' E 002°10'0 0.3
2018-Feb-15 10:30N 41°21' E 002°10'3 6.1
2018-Feb-15 10:00N 41°18' E 002°10'2 4.7
2018-Feb-15 09:30N 41°17' E 002°13'0 0.8
2018-Feb-15 09:00N 41°17' E 002°13'2 4.4
2018-Feb-15 08:30N 41°18' E 002°15'5 9.1
2018-Feb-15 08:00N 41°20' E 002°21'714.0
2018-Feb-15 07:30N 41°23' E 002°29'22816.7
2018-Feb-14 17:50N 42°57' E 007°09'717.0
2018-Feb-14 17:25N 43°01' E 007°16'917.1
2018-Feb-14 16:54N 43°08' E 007°25'5517.4
2018-Feb-14 13:44N 43°40' E 008°26'417.6
2018-Feb-14 13:30N 43°43' E 008°30'917.6
2018-Feb-14 13:01N 43°50' E 008°38'918.4
2018-Feb-14 12:30N 43°57' E 008°46'918.0
2018-Feb-14 12:00N 44°05' E 008°52'917.7
2018-Feb-14 11:30N 44°13' E 008°56'917.2
2018-Feb-14 11:00N 44°22' E 008°57'3 5.4
2018-Feb-14 10:30N 44°24' E 008°55'0 0.0
2018-Feb-14 10:00N 44°24' E 008°55'0 0.0
2018-Feb-14 09:30N 44°24' E 008°55'0 0.0
2018-Feb-14 09:00N 44°24' E 008°55'0 0.0
2018-Feb-14 08:29N 44°24' E 008°55'0 0.0
2018-Feb-14 07:56N 44°24' E 008°55'0 0.0
2018-Feb-14 07:29N 44°24' E 008°55'0 0.0
2018-Feb-14 06:59N 44°24' E 008°55'0 0.0
2018-Feb-14 06:29N 44°24' E 008°55'0 0.0
2018-Feb-14 05:58N 44°24' E 008°55'0 0.0
2018-Feb-14 05:28N 44°24' E 008°55'0 0.0
2018-Feb-14 04:58N 44°24' E 008°55'0 0.0
2018-Feb-14 04:28N 44°24' E 008°55'0 0.0
2018-Feb-14 04:01N 44°24' E 008°55'0 0.0
2018-Feb-14 03:30N 44°24' E 008°55'0 0.0
2018-Feb-14 03:00N 44°24' E 008°55'0 0.0
2018-Feb-14 02:30N 44°24' E 008°55'0 0.0
2018-Feb-14 02:00N 44°24' E 008°55'0 0.0
2018-Feb-14 01:26N 44°24' E 008°55'0 0.0
2018-Feb-14 00:59N 44°24' E 008°55'0 0.0
2018-Feb-14 00:26N 44°24' E 008°55'0 0.0
2018-Feb-13 23:59N 44°24' E 008°55'0 0.0
2018-Feb-13 23:29N 44°24' E 008°55'0 0.0
2018-Feb-13 22:58N 44°24' E 008°55'0 0.0
2018-Feb-13 22:28N 44°24' E 008°55'0 0.0
2018-Feb-13 21:55N 44°24' E 008°55'0 0.0
2018-Feb-13 21:28N 44°24' E 008°55'0 0.0
2018-Feb-13 21:00N 44°24' E 008°55'0 0.0
2018-Feb-13 20:30N 44°24' E 008°55'0 0.0
2018-Feb-13 20:00N 44°24' E 008°55'0 0.0
2018-Feb-13 19:30N 44°24' E 008°55'0 0.0
2018-Feb-13 19:00N 44°24' E 008°55'0 0.0
2018-Feb-13 18:29N 44°24' E 008°55'0 0.0
2018-Feb-13 17:59N 44°24' E 008°55'0 0.0
2018-Feb-13 17:26N 44°24' E 008°55'0 0.0
2018-Feb-13 16:59N 44°24' E 008°55'0 0.0
2018-Feb-13 16:28N 44°24' E 008°55'0 0.0
2018-Feb-13 15:55N 44°24' E 008°55'0 0.0
2018-Feb-13 15:28N 44°24' E 008°55'0 0.0
2018-Feb-13 14:55N 44°24' E 008°55'0 0.0
2018-Feb-13 14:28N 44°24' E 008°55'0 0.0
2018-Feb-13 14:00N 44°24' E 008°55'0 0.0
2018-Feb-13 13:30N 44°24' E 008°55'0 0.0
2018-Feb-13 12:57N 44°24' E 008°55'0 0.0
2018-Feb-13 12:30N 44°24' E 008°55'0 0.0
2018-Feb-13 12:00N 44°24' E 008°55'0 0.0
2018-Feb-13 11:29N 44°24' E 008°55'0 0.0
2018-Feb-13 10:56N 44°24' E 008°55'0 0.0
2018-Feb-13 10:26N 44°24' E 008°55'0 0.0
2018-Feb-13 09:59N 44°24' E 008°55'0 0.0
2018-Feb-13 09:28N 44°24' E 008°55'0 0.0
2018-Feb-13 08:58N 44°24' E 008°55'0 0.0
2018-Feb-13 08:25N 44°24' E 008°55'0 0.0
2018-Feb-13 07:58N 44°24' E 008°55'0 0.0
2018-Feb-13 07:30N 44°24' E 008°55'2 4.0
2018-Feb-13 07:00N 44°23' E 008°57'2 4.2
2018-Feb-13 06:30N 44°21' E 008°58'4 8.0
2018-Feb-13 06:00N 44°17' E 008°58'4 7.6
2018-Feb-13 05:30N 44°13' E 008°57'4 8.1
2018-Feb-13 05:00N 44°09' E 008°56'4 9.0
2018-Feb-13 04:30N 44°05' E 008°55'5 9.2
2018-Feb-13 04:00N 44°01' E 008°53'5 9.0
2018-Feb-13 03:30N 43°57' E 008°49'4 8.6
2018-Feb-13 03:00N 43°54' E 008°45'4 8.4
2018-Feb-13 02:30N 43°51' E 008°41'4 8.6
2018-Feb-13 02:00N 43°47' E 008°37'4 8.8
2018-Feb-13 01:30N 43°44' E 008°33'4 8.6
2018-Feb-13 01:00N 43°41' E 008°29'4 8.9
2018-Feb-13 00:30N 43°38' E 008°25'  

Dump ship's entire track history